Poznan, Poland

6:23 AM CEST on September 19, 2014 (GMT +0200)
Lawica | Change Station
CLOSE
Current Station
Airport
Location: Poznan,
Elevation: 302 ft
Nearby Weather Stations

Elev 302 ft 52.42 °N, 16.83 °E | Updated 23 minutes ago

Clear
Clear
57 °F
Feels Like 57 °F
N
8
Wind Variable Wind from SE

Today
High -- | Low -- °F
--% Chance of Precip.
Yesterday
High -- | Low -- °F
Precip. -- in
6:33 AM 6:58 PM
Waning Crescent, 22% visible
Pressure 30.01 in
Visibility -9999.0 miles
Clouds
Dew Point 52 °F
Humidity 82%
Rainfall 0.00 in
Snow Depth Not available.
UV Not available.
Pollen Not available.
Air Quality Not available.
Flu Activity Not available.
METAR EPPO 190400Z 13007KT CAVOK 14/11 Q1016

More Conditions Fewer Conditions

Pressure 30.01 in
Visibility -9999.0 miles
Clouds
Dew Point 52 °F
Humidity 82%
Rainfall 0.00 in
Snow Depth Not available.
UV Not available.
Pollen Not available.
Air Quality Not available.
Flu Activity Not available.
METAR EPPO 190400Z 13007KT CAVOK 14/11 Q1016

More Conditions Fewer Conditions

10-Day Weather Forecast

Almanac

Astronomy

Sep. 19, 2014 Rise Set
Actual Time 6:33 AM CEST 6:58 PM CEST
Civil Twilight 5:59 AM CEST 7:32 PM CEST
Nautical Twilight 5:18 AM CEST 8:13 PM CEST
Astronomical Twilight 4:35 AM CEST 8:56 PM CEST
Moon 1:35 AM CEST 4:40 PM CEST
Length of Visible Light 13h 33m
Length of Day
12h 25m
Tomorrow will be 4m 3s shorter.
Waning Crescent, 22% of the Moon is Illuminated
Today
Waning Crescent
Sep 24
New
Oct 1
First Quarter
Oct 8
Full
Oct 15
Last Quarter

Yesterday's Extremes

Country Highs Country Lows

Community

WunderPhotos

Upload Photos

1,754,558 photos uploaded!

Nearby

Snow Depth

Not available.

Earthquake Activity

City Distance Mag. Time & Date
No recent earthquake activity has been reported nearby.
Minimum magnitude displayed is 2.5.

Coastal Water Temperatures

Place Temperature
No Stations Reporting

Nearby Weather Stations